Elmwood, Illinois
Current Conditions -  °F | °C
As of 6:29 AM on Monday 24 Nov 2014 (Local Time) from KPIA Reporting Station
Light Snow Light Snow  
Wind Chill: 25°   Ceiling: 800
Heat Index: 35°   Visibility: 1.7mi
Dew Point: 31°   Wind: 16mph
Humidity: 85%   Direction: 280°W
Pressure: 29.29"   Gusts: 28mph
Location:  40.78°N, 89.97°W
Report Text: KPIA 241229Z 28014G24KT 1 3/4SM -SN BR BKN008 OVC022 02/M01 A2929 RMK AO2 PK WND 28028/1157 RAE04SNB04 P0003 T00171006
Loading
Personal Weather Stations






























Interactive Weather Map New forecast layout! Learn more

10-Day Weather Forecast

Advertisements
Track Severe Weather on mobile